Time;durP1;ratioP1;P1;durP2;ratioP2;P2;SDS_P1;SDS_P2;PMS_P1;PMS_P2;Temp;Humidity;BMP_temperature;BMP_pressure;BME280_temperature;BME280_humidity;BME280_pressure;Samples;Min_cycle;Max_cycle;Signal;HPM_P1;HPM_P2
2023/12/11 00:00:05;;;;;;;5.63;3.13;;;;;;;6.92;100.00;99490.09;6177555;28;20257;-77
2023/12/11 00:03:26;;;;;;;7.03;3.50;;;;;;;6.99;100.00;99483.13;6172641;28;20851;-77
2023/12/11 00:06:47;;;;;;;3.83;2.60;;;;;;;6.87;100.00;99485.19;6179895;28;20226;-77
2023/12/11 00:10:09;;;;;;;3.43;2.20;;;;;;;6.92;100.00;99482.06;6186077;28;20372;-77
2023/12/11 00:13:30;;;;;;;3.63;2.70;;;;;;;6.86;100.00;99477.28;6182249;28;20225;-76
2023/12/11 00:16:53;;;;;;;7.50;3.30;;;;;;;6.93;100.00;99476.56;6182839;28;20826;-77
2023/12/11 00:20:14;;;;;;;4.50;2.57;;;;;;;6.73;100.00;99482.13;6187927;28;20328;-77
2023/12/11 00:23:35;;;;;;;2.97;2.40;;;;;;;6.69;100.00;99467.34;6185190;28;20229;-77
2023/12/11 00:26:56;;;;;;;5.83;2.40;;;;;;;6.82;100.00;99468.69;6188758;28;20242;-77
2023/12/11 00:30:17;;;;;;;2.70;2.00;;;;;;;6.62;100.00;99458.19;6172036;28;20241;-78
2023/12/11 00:33:39;;;;;;;5.43;1.97;;;;;;;6.79;100.00;99454.75;6184391;28;20226;-78
2023/12/11 00:37:01;;;;;;;4.37;2.47;;;;;;;6.81;100.00;99447.41;6183766;28;20257;-78
2023/12/11 00:40:22;;;;;;;2.57;2.37;;;;;;;6.69;100.00;99452.13;6187320;28;20242;-78
2023/12/11 00:43:43;;;;;;;3.50;2.00;;;;;;;6.88;100.00;99444.03;6186706;28;20241;-78
2023/12/11 00:47:05;;;;;;;2.90;2.17;;;;;;;6.91;100.00;99440.19;6187444;28;20253;-78
2023/12/11 00:50:27;;;;;;;5.40;3.00;;;;;;;6.77;100.00;99443.34;6173312;28;20233;-78
2023/12/11 00:53:50;;;;;;;5.03;2.97;;;;;;;6.64;100.00;99442.84;6189942;28;20230;-78
2023/12/11 00:57:11;;;;;;;2.90;1.60;;;;;;;6.47;100.00;99434.59;6189229;28;20234;-77
2023/12/11 01:00:32;;;;;;;6.57;1.97;;;;;;;6.56;100.00;99435.53;6184106;28;20261;-78
2023/12/11 01:03:54;;;;;;;3.73;1.67;;;;;;;6.56;100.00;99426.66;6192263;28;20606;-78
2023/12/11 01:07:16;;;;;;;6.53;3.27;;;;;;;6.59;100.00;99413.84;6177896;28;20229;-78
2023/12/11 01:10:37;;;;;;;2.17;1.60;;;;;;;6.70;100.00;99420.81;6174898;28;20268;-77
2023/12/11 01:13:58;;;;;;;2.50;1.60;;;;;;;6.78;100.00;99429.00;6188090;28;20229;-77
2023/12/11 01:17:19;;;;;;;3.10;1.93;;;;;;;6.82;100.00;99439.22;6176576;28;20421;-77
2023/12/11 01:20:40;;;;;;;3.83;1.70;;;;;;;6.68;100.00;99434.38;6189529;28;20242;-77
2023/12/11 01:24:03;;;;;;;4.23;1.93;;;;;;;6.76;100.00;99436.31;6191547;28;20233;-77
2023/12/11 01:27:24;;;;;;;3.57;1.57;;;;;;;6.62;100.00;99444.81;6183215;28;20317;-77
2023/12/11 01:30:45;;;;;;;5.50;3.23;;;;;;;6.72;100.00;99443.78;6187336;28;20237;-78
2023/12/11 01:34:05;;;;;;;8.07;2.33;;;;;;;6.61;100.00;99435.97;6172861;28;20233;-77
2023/12/11 01:37:26;;;;;;;3.30;1.97;;;;;;;6.67;100.00;99440.72;6175289;28;20589;-77
2023/12/11 01:40:48;;;;;;;3.30;1.80;;;;;;;6.75;100.00;99446.19;6187035;28;20245;-77
2023/12/11 01:44:10;;;;;;;3.30;2.23;;;;;;;6.72;100.00;99440.25;6179196;28;20671;-77
2023/12/11 01:47:31;;;;;;;1.63;1.43;;;;;;;6.72;100.00;99433.06;6179627;28;21203;-76
2023/12/11 01:50:53;;;;;;;3.43;2.83;;;;;;;6.77;100.00;99446.88;6178616;28;20229;-76
2023/12/11 01:54:14;;;;;;;4.57;2.47;;;;;;;6.82;100.00;99447.25;6182271;28;20237;-77
2023/12/11 01:57:37;;;;;;;4.67;2.03;;;;;;;6.71;100.00;99436.75;6182885;28;20226;-77
2023/12/11 02:00:59;;;;;;;3.83;2.57;;;;;;;6.75;100.00;99448.88;6178809;28;20237;-77
2023/12/11 02:04:20;;;;;;;5.27;2.93;;;;;;;6.80;100.00;99453.78;6184903;28;20221;-77
2023/12/11 02:07:41;;;;;;;2.87;1.80;;;;;;;6.71;100.00;99452.81;6170490;28;22416;-76
2023/12/11 02:11:03;;;;;;;6.83;3.43;;;;;;;6.68;100.00;99458.47;6174010;28;20263;-76
2023/12/11 02:14:25;;;;;;;4.90;2.13;;;;;;;6.77;100.00;99459.41;6169317;28;20333;-77
2023/12/11 02:17:46;;;;;;;4.03;3.17;;;;;;;6.74;100.00;99460.56;6180334;28;20268;-78
2023/12/11 02:21:07;;;;;;;6.00;2.97;;;;;;;6.76;100.00;99463.91;6176752;28;20241;-77
2023/12/11 02:24:33;;;;;;;3.67;3.33;;;;;;;6.73;100.00;99453.53;6174227;28;20225;-76
2023/12/11 02:27:56;;;;;;;4.00;3.63;;;;;;;6.84;100.00;99450.63;6161787;28;20638;-76
2023/12/11 02:31:17;;;;;;;4.20;3.17;;;;;;;7.00;100.00;99452.69;6178403;28;20627;-76
2023/12/11 02:34:37;;;;;;;2.93;2.63;;;;;;;7.22;100.00;99444.25;6182530;28;20253;-76
2023/12/11 02:37:58;;;;;;;3.13;2.83;;;;;;;7.33;100.00;99452.09;6168742;28;20234;-76
2023/12/11 02:41:19;;;;;;;3.80;3.20;;;;;;;7.38;100.00;99451.63;6172509;28;20242;-76
2023/12/11 02:44:42;;;;;;;3.90;3.60;;;;;;;7.43;100.00;99441.28;6185983;28;21064;-77
2023/12/11 02:48:03;;;;;;;7.20;5.27;;;;;;;7.52;100.00;99451.97;6179678;28;20237;-76
2023/12/11 02:51:24;;;;;;;7.10;5.07;;;;;;;7.63;100.00;99453.56;6178599;28;20238;-77
2023/12/11 02:54:46;;;;;;;6.37;5.00;;;;;;;7.75;100.00;99447.84;6186273;28;20360;-77
2023/12/11 02:58:07;;;;;;;4.07;3.70;;;;;;;7.79;100.00;99435.78;6174316;28;20316;-77
2023/12/11 03:01:29;;;;;;;5.90;5.27;;;;;;;7.83;100.00;99444.38;6185967;28;20260;-77
2023/12/11 03:04:51;;;;;;;6.03;4.20;;;;;;;7.84;100.00;99449.56;6178004;28;20595;-76
2023/12/11 03:08:11;;;;;;;7.63;4.90;;;;;;;7.87;100.00;99451.13;6187756;28;20233;-77
2023/12/11 03:11:33;;;;;;;7.10;4.37;;;;;;;7.87;100.00;99441.22;6177986;28;21173;-77
2023/12/11 03:14:54;;;;;;;4.67;4.20;;;;;;;7.92;100.00;99447.00;6164900;28;20226;-77
2023/12/11 03:18:16;;;;;;;8.27;4.67;;;;;;;7.97;100.00;99450.03;6177069;28;20244;-77
2023/12/11 03:21:37;;;;;;;13.17;5.17;;;;;;;8.04;100.00;99443.06;6180772;28;20603;-77
2023/12/11 03:24:58;;;;;;;6.63;4.23;;;;;;;8.07;100.00;99449.97;6182872;28;20615;-78
2023/12/11 03:28:19;;;;;;;8.40;4.40;;;;;;;8.07;100.00;99440.06;6182835;28;20817;-77
2023/12/11 03:31:40;;;;;;;5.47;3.67;;;;;;;8.08;100.00;99441.75;6179425;28;22137;-77
2023/12/11 03:35:02;;;;;;;8.07;4.23;;;;;;;8.19;100.00;99443.34;6176616;28;20245;-77
2023/12/11 03:38:23;;;;;;;7.43;3.67;;;;;;;8.22;100.00;99439.50;6177490;28;20230;-77
2023/12/11 03:41:45;;;;;;;15.13;4.50;;;;;;;8.21;100.00;99437.81;6161209;28;20619;-77
2023/12/11 03:45:06;;;;;;;11.17;4.80;;;;;;;8.22;100.00;99447.56;6180910;28;20221;-77
2023/12/11 03:48:28;;;;;;;10.97;3.30;;;;;;;8.19;100.00;99440.66;6173479;28;20615;-76
2023/12/11 03:51:50;;;;;;;5.90;4.13;;;;;;;8.19;100.00;99439.81;6179254;28;20237;-77
2023/12/11 03:55:11;;;;;;;16.17;5.27;;;;;;;8.27;100.00;99437.22;6179089;28;20246;-76
2023/12/11 03:58:32;;;;;;;15.70;4.00;;;;;;;8.27;100.00;99439.91;6178444;28;20285;-76
2023/12/11 04:01:53;;;;;;;6.37;5.50;;;;;;;8.29;100.00;99435.22;6175022;28;20234;-76
2023/12/11 04:05:14;;;;;;;11.43;4.60;;;;;;;8.25;100.00;99434.69;6176525;28;20257;-77
2023/12/11 04:08:40;;;;;;;9.13;3.63;;;;;;;8.28;100.00;99442.41;6170007;28;20611;-77
2023/12/11 04:12:01;;;;;;;6.47;4.00;;;;;;;8.36;100.00;99453.25;6181480;28;20842;-76
2023/12/11 04:15:22;;;;;;;10.37;5.40;;;;;;;8.47;100.00;99452.13;6176716;28;20805;-75
2023/12/11 04:18:44;;;;;;;12.77;5.33;;;;;;;8.53;100.00;99449.63;6174100;28;20248;-75
2023/12/11 04:22:04;;;;;;;6.43;3.17;;;;;;;8.61;100.00;99451.56;6175154;28;20233;-75
2023/12/11 04:25:27;;;;;;;14.73;5.57;;;;;;;8.60;100.00;99450.69;6176384;28;20296;-76
2023/12/11 04:28:48;;;;;;;11.63;4.17;;;;;;;8.66;100.00;99446.53;6182990;28;21466;-76
2023/12/11 04:32:08;;;;;;;8.80;4.07;;;;;;;8.68;100.00;99449.91;6171563;28;20237;-76
2023/12/11 04:35:29;;;;;;;9.03;4.20;;;;;;;8.65;100.00;99450.22;6178594;28;20241;-76
2023/12/11 04:38:51;;;;;;;10.83;3.97;;;;;;;8.62;100.00;99445.16;6151673;28;20545;-75
2023/12/11 04:42:13;;;;;;;8.87;3.63;;;;;;;8.61;100.00;99457.78;6180706;28;20320;-75
2023/12/11 04:45:34;;;;;;;12.00;5.73;;;;;;;8.61;100.00;99456.94;6183849;28;20229;-75
2023/12/11 04:48:55;;;;;;;11.90;6.17;;;;;;;8.60;100.00;99450.69;6175280;28;20234;-76
2023/12/11 04:52:17;;;;;;;13.83;6.50;;;;;;;8.61;100.00;99441.66;6180597;28;20238;-76
2023/12/11 04:55:38;;;;;;;8.07;4.17;;;;;;;8.60;100.00;99450.69;6168590;28;20237;-76
2023/12/11 04:59:00;;;;;;;21.27;6.60;;;;;;;8.59;100.00;99453.56;6168960;28;20667;-76
2023/12/11 05:02:21;;;;;;;15.63;5.63;;;;;;;8.57;100.00;99451.00;6179433;28;20236;-75
2023/12/11 05:05:42;;;;;;;18.83;7.77;;;;;;;8.59;100.00;99453.56;6183699;28;20607;-76
2023/12/11 05:09:03;;;;;;;9.33;5.20;;;;;;;8.60;100.00;99453.38;6163927;28;20691;-75
2023/12/11 05:12:25;;;;;;;14.87;7.50;;;;;;;8.62;100.00;99454.06;6181946;28;20228;-75
2023/12/11 05:15:48;;;;;;;9.37;6.20;;;;;;;8.65;100.00;99460.97;6179935;28;20233;-75
2023/12/11 05:19:09;;;;;;;21.17;7.23;;;;;;;8.67;100.00;99451.75;6182947;28;20234;-77
2023/12/11 05:22:30;;;;;;;15.50;9.10;;;;;;;8.70;100.00;99456.81;6179578;28;20360;-77
2023/12/11 05:25:51;;;;;;;12.03;7.07;;;;;;;8.72;100.00;99460.16;6177701;28;20230;-76
2023/12/11 05:29:12;;;;;;;20.83;7.97;;;;;;;8.71;100.00;99460.34;6179081;28;20269;-76
2023/12/11 05:32:34;;;;;;;17.33;7.13;;;;;;;8.72;100.00;99451.25;6181357;28;20233;-76
2023/12/11 05:35:55;;;;;;;19.67;6.10;;;;;;;8.71;100.00;99452.28;6155233;28;20230;-76
2023/12/11 05:39:17;;;;;;;19.10;7.43;;;;;;;8.73;100.00;99455.66;6173180;28;22196;-78
2023/12/11 05:42:38;;;;;;;14.53;6.03;;;;;;;8.73;100.00;99456.50;6170559;28;20243;-75
2023/12/11 05:46:00;;;;;;;20.80;7.73;;;;;;;8.73;100.00;99453.81;6178526;28;20230;-76
2023/12/11 05:49:22;;;;;;;11.07;7.07;;;;;;;8.74;100.00;99452.78;6174377;28;20241;-75
2023/12/11 05:52:44;;;;;;;15.53;7.10;;;;;;;8.70;100.00;99446.06;6182022;28;20612;-76
2023/12/11 05:56:06;;;;;;;16.03;7.97;;;;;;;8.72;100.00;99449.44;6175574;28;20238;-76
2023/12/11 05:59:27;;;;;;;16.03;7.07;;;;;;;8.72;100.00;99449.44;6174193;28;22507;-76
2023/12/11 06:02:48;;;;;;;11.90;6.13;;;;;;;8.72;100.00;99443.19;6177394;28;20233;-76
2023/12/11 06:06:16;;;;;;;13.37;6.83;;;;;;;8.72;100.00;99444.06;6166291;28;20238;-76
2023/12/11 06:09:37;;;;;;;18.37;7.13;;;;;;;8.74;100.00;99444.72;6187454;28;20556;-77
2023/12/11 06:12:58;;;;;;;19.53;7.40;;;;;;;8.75;100.00;99445.59;6177047;28;21240;-74
2023/12/11 06:16:20;;;;;;;13.43;7.47;;;;;;;8.72;100.00;99440.50;6157336;28;20229;-75
2023/12/11 06:19:42;;;;;;;20.43;6.60;;;;;;;8.69;100.00;99440.84;6166709;28;20229;-75
2023/12/11 06:23:04;;;;;;;30.30;9.20;;;;;;;8.71;100.00;99441.53;6170550;28;20225;-76
2023/12/11 06:26:29;;;;;;;18.97;6.80;;;;;;;8.66;100.00;99433.94;6169787;28;22698;-76
2023/12/11 06:29:50;;;;;;;14.50;5.37;;;;;;;8.65;100.00;99432.28;6173646;28;20237;-78
2023/12/11 06:33:11;;;;;;;14.57;8.60;;;;;;;8.63;100.00;99433.44;6170941;28;22326;-76
2023/12/11 06:36:32;;;;;;;16.30;7.27;;;;;;;8.64;100.00;99430.56;6157124;28;20237;-74
2023/12/11 06:39:55;;;;;;;16.80;6.77;;;;;;;8.62;100.00;99427.22;6169766;28;20234;-76
2023/12/11 06:43:16;;;;;;;18.07;8.27;;;;;;;8.66;100.00;99425.03;6167405;28;20234;-75
2023/12/11 06:46:37;;;;;;;16.57;6.63;;;;;;;8.64;100.00;99421.66;6173596;28;20238;-75
2023/12/11 06:49:58;;;;;;;19.70;9.17;;;;;;;8.63;100.00;99420.00;6167103;28;20247;-75
2023/12/11 06:53:19;;;;;;;18.83;7.73;;;;;;;8.64;100.00;99416.28;6169601;28;20226;-76
2023/12/11 06:56:41;;;;;;;10.50;5.53;;;;;;;8.61;100.00;99417.50;6177070;28;20261;-76
2023/12/11 07:00:05;;;;;;;24.57;7.73;;;;;;;8.60;100.00;99414.94;6170745;28;20233;-77
2023/12/11 07:03:26;;;;;;;15.00;8.40;;;;;;;8.65;100.00;99407.25;6163339;28;20523;-76
2023/12/11 07:06:47;;;;;;;14.67;7.80;;;;;;;8.74;100.00;99415.19;6183384;28;20245;-75
2023/12/11 07:10:08;;;;;;;15.57;7.57;;;;;;;8.69;100.00;99414.84;6183246;28;20232;-76
2023/12/11 07:13:31;;;;;;;16.33;6.77;;;;;;;8.70;100.00;99411.13;6162610;28;21386;-73
2023/12/11 07:16:52;;;;;;;16.23;6.90;;;;;;;8.63;100.00;99410.09;6167527;28;20237;-72
2023/12/11 07:20:13;;;;;;;16.10;6.87;;;;;;;8.61;100.00;99413.94;6177946;28;20242;-76
2023/12/11 07:23:34;;;;;;;16.57;6.07;;;;;;;8.57;100.00;99412.59;6176520;28;20241;-76
2023/12/11 07:26:56;;;;;;;14.23;5.97;;;;;;;8.56;100.00;99402.81;6157249;28;20229;-78
2023/12/11 07:30:18;;;;;;;13.20;4.80;;;;;;;8.52;100.00;99414.91;6177598;28;20543;-74
2023/12/11 07:33:39;;;;;;;19.90;8.47;;;;;;;8.55;100.00;99418.09;6172392;28;20518;-75
2023/12/11 07:37:00;;;;;;;12.53;5.43;;;;;;;8.54;100.00;99419.13;6165793;28;20233;-75
2023/12/11 07:40:21;;;;;;;12.07;4.63;;;;;;;8.52;100.00;99417.56;6162442;28;20356;-74
2023/12/11 07:43:42;;;;;;;9.83;5.43;;;;;;;8.51;100.00;99405.16;6149216;28;20242;-74
2023/12/11 07:47:05;;;;;;;14.40;6.30;;;;;;;8.52;100.00;99404.16;6164547;28;20296;-75
2023/12/11 07:50:26;;;;;;;15.93;5.37;;;;;;;8.55;100.00;99409.22;6160132;28;20324;-75
2023/12/11 07:53:48;;;;;;;9.93;5.77;;;;;;;8.54;100.00;99408.38;6173137;28;20257;-73
2023/12/11 07:57:09;;;;;;;8.60;5.03;;;;;;;8.56;100.00;99402.81;6167404;28;20237;-73
2023/12/11 08:00:30;;;;;;;19.90;5.13;;;;;;;8.53;100.00;99416.59;6166053;28;20234;-74
2023/12/11 08:03:53;;;;;;;7.30;4.73;;;;;;;8.58;100.00;99403.50;6175092;28;20229;-74
2023/12/11 08:07:15;;;;;;;14.50;5.67;;;;;;;8.58;100.00;99403.50;6174227;28;20261;-74
2023/12/11 08:10:36;;;;;;;9.93;4.70;;;;;;;8.62;100.00;99404.88;6175765;28;20230;-74
2023/12/11 08:13:57;;;;;;;12.53;4.90;;;;;;;8.64;100.00;99402.88;6176465;28;20258;-74
2023/12/11 08:17:18;;;;;;;9.27;3.77;;;;;;;8.68;100.00;99409.59;6177352;28;20229;-74
2023/12/11 08:20:40;;;;;;;9.73;4.57;;;;;;;8.72;100.00;99403.75;6163371;28;20237;-74
2023/12/11 08:24:01;;;;;;;12.10;6.77;;;;;;;8.73;100.00;99404.59;6170572;28;20547;-76
2023/12/11 08:27:23;;;;;;;19.33;6.63;;;;;;;8.76;100.00;99406.97;6173243;28;20744;-76
2023/12/11 08:30:43;;;;;;;9.83;5.40;;;;;;;8.76;100.00;99399.75;6172939;28;20621;-76
2023/12/11 08:34:04;;;;;;;11.13;6.03;;;;;;;8.77;100.00;99404.13;6174564;28;20230;-76
2023/12/11 08:37:27;;;;;;;11.47;4.20;;;;;;;8.79;100.00;99402.13;6162433;28;21745;-76
2023/12/11 08:40:48;;;;;;;14.13;6.47;;;;;;;8.81;100.00;99400.13;6173799;28;20237;-73
2023/12/11 08:44:09;;;;;;;11.83;4.83;;;;;;;8.81;100.00;99405.47;6155572;28;20329;-74
2023/12/11 08:47:30;;;;;;;11.47;4.57;;;;;;;8.85;100.00;99395.25;6168004;28;20517;-74
2023/12/11 08:50:53;;;;;;;7.53;4.27;;;;;;;8.85;100.00;99393.41;6174611;28;20230;-76
2023/12/11 08:54:15;;;;;;;10.53;4.47;;;;;;;8.91;100.00;99397.28;6179934;28;20261;-78
2023/12/11 08:57:37;;;;;;;14.10;5.33;;;;;;;8.89;100.00;99399.28;6179785;28;20245;-73
2023/12/11 09:00:58;;;;;;;12.30;5.53;;;;;;;8.93;100.00;99402.53;6173873;28;20241;-72
2023/12/11 09:04:19;;;;;;;10.03;7.87;;;;;;;8.91;100.00;99399.97;6175027;28;20237;-74
2023/12/11 09:07:40;;;;;;;16.40;6.30;;;;;;;8.93;100.00;99395.28;6165821;28;20234;-75
2023/12/11 09:11:02;;;;;;;13.27;6.60;;;;;;;8.95;100.00;99401.31;6177264;28;20701;-75
2023/12/11 09:14:24;;;;;;;7.23;4.80;;;;;;;8.96;100.00;99403.03;6173813;28;20237;-74
2023/12/11 09:17:45;;;;;;;14.80;5.43;;;;;;;8.86;100.00;99403.13;6166137;28;20257;-74
2023/12/11 09:21:06;;;;;;;11.83;6.63;;;;;;;8.86;100.00;99411.19;6176500;28;20244;-74
2023/12/11 09:24:27;;;;;;;13.33;5.47;;;;;;;8.80;100.00;99416.41;6181735;28;20237;-78
2023/12/11 09:27:50;;;;;;;8.93;4.90;;;;;;;8.75;100.00;99414.19;6176913;28;20233;-75
2023/12/11 09:31:11;;;;;;;8.37;5.13;;;;;;;8.68;100.00;99420.34;6176441;28;21362;-76
2023/12/11 09:34:33;;;;;;;7.40;3.97;;;;;;;8.61;100.00;99413.94;6166288;28;20241;-74
2023/12/11 09:37:54;;;;;;;2.93;2.53;;;;;;;8.61;100.00;99420.16;6173877;28;20256;-74
2023/12/11 09:41:17;;;;;;;6.90;3.23;;;;;;;8.68;100.00;99421.19;6173955;28;20266;-74
2023/12/11 09:44:41;;;;;;;5.50;4.30;;;;;;;8.83;100.00;99410.69;6163353;28;20787;-76
2023/12/11 09:48:03;;;;;;;11.10;4.90;;;;;;;8.86;100.00;99411.19;6172910;28;20253;-77
2023/12/11 09:51:25;;;;;;;12.67;4.50;;;;;;;8.91;100.00;99402.66;6151253;28;20606;-77
2023/12/11 09:54:48;;;;;;;14.30;6.63;;;;;;;9.01;100.00;99411.44;6185555;28;20238;-77
2023/12/11 09:58:09;;;;;;;11.03;5.23;;;;;;;9.05;100.00;99410.13;6172593;28;20599;-77
2023/12/11 10:01:33;;;;;;;12.83;4.50;;;;;;;9.10;100.00;99409.63;6177615;28;20221;-78
2023/12/11 10:05:05;;;;;;;10.60;4.63;;;;;;;9.13;100.00;99402.09;6183963;28;20324;-77
2023/12/11 10:08:26;;;;;;;8.93;5.13;;;;;;;9.19;100.00;99404.13;6173784;28;20242;-77
2023/12/11 10:11:58;;;;;;;12.67;5.13;;;;;;;9.27;100.00;99404.13;6182774;28;20237;-78
2023/12/11 10:15:23;;;;;;;8.40;4.77;;;;;;;9.36;100.00;99413.06;6169353;28;20615;-77
2023/12/11 10:18:49;;;;;;;13.23;4.33;;;;;;;9.43;100.00;99401.47;6169842;28;20250;-78
2023/12/11 10:22:26;;;;;;;6.63;4.77;;;;;;;9.42;100.00;99397.13;6182431;28;20996;-77
2023/12/11 10:25:48;;;;;;;10.80;5.10;;;;;;;9.52;100.00;99394.28;6172136;28;20245;-77
2023/12/11 10:29:21;;;;;;;8.87;4.23;;;;;;;9.61;100.00;99394.13;6169708;28;20225;-77
2023/12/11 10:32:42;;;;;;;8.50;5.63;;;;;;;9.51;100.00;99392.59;6177484;28;20229;-77
2023/12/11 10:36:13;;;;;;;9.80;5.23;;;;;;;9.53;100.00;99382.50;6181829;28;20229;-78
2023/12/11 10:39:33;;;;;;;10.20;4.47;;;;;;;9.50;100.00;99393.59;6181734;28;20225;-77
2023/12/11 10:42:57;;;;;;;11.13;5.30;;;;;;;9.55;100.00;99388.56;6183777;28;20230;-76
2023/12/11 10:46:18;;;;;;;7.87;3.77;;;;;;;9.74;100.00;99392.78;6186514;28;20233;-78
2023/12/11 10:49:40;;;;;;;7.87;3.73;;;;;;;9.75;100.00;99394.44;6182033;28;20237;-78
2023/12/11 10:53:03;;;;;;;7.00;2.63;;;;;;;9.70;100.00;99378.81;6183506;28;20234;-79
2023/12/11 10:56:24;;;;;;;4.47;3.07;;;;;;;9.65;100.00;99383.88;6167377;28;20341;-76
2023/12/11 10:59:45;;;;;;;9.53;3.70;;;;;;;9.54;100.00;99386.88;6179362;28;20233;-77
2023/12/11 11:03:11;;;;;;;6.23;3.17;;;;;;;9.59;100.00;99388.06;6180194;28;20324;-77
2023/12/11 11:06:38;;;;;;;8.07;4.33;;;;;;;9.58;100.00;99390.91;6172891;28;21442;-77
2023/12/11 11:10:09;;;;;;;8.33;3.33;;;;;;;9.65;100.00;99390.09;6172140;28;20253;-78
2023/12/11 11:13:36;;;;;;;10.47;3.77;;;;;;;9.74;100.00;99385.56;6179084;28;20229;-76
2023/12/11 11:16:58;;;;;;;7.67;3.87;;;;;;;9.67;100.00;99384.53;6181451;28;20804;-77
2023/12/11 11:20:20;;;;;;;8.33;3.47;;;;;;;9.79;100.00;99380.50;6180621;28;20230;-77
2023/12/11 11:23:43;;;;;;;6.47;5.07;;;;;;;9.72;100.00;99384.03;6182678;28;20278;-77
2023/12/11 11:27:39;;;;;;;8.47;3.67;;;;;;;9.71;100.00;99385.03;6165211;28;20489;-77
2023/12/11 11:30:59;;;;;;;8.13;4.07;;;;;;;9.54;100.00;99393.09;6164864;28;20274;-74
2023/12/11 11:34:43;;;;;;;9.67;3.17;;;;;;;9.52;100.00;99383.50;6171639;28;20257;-77
2023/12/11 11:38:04;;;;;;;7.53;2.57;;;;;;;9.50;100.00;99383.69;6176127;28;20242;-75
2023/12/11 11:41:27;;;;;;;6.33;2.80;;;;;;;9.48;100.00;99391.06;6165858;28;20630;-77
2023/12/11 11:44:55;;;;;;;10.70;4.70;;;;;;;9.56;100.00;99391.09;6182941;28;20245;-78
2023/12/11 11:48:16;;;;;;;8.83;3.57;;;;;;;9.66;100.00;99391.75;6187305;28;20232;-79
2023/12/11 11:51:37;;;;;;;5.07;3.43;;;;;;;9.84;100.00;99383.53;6184767;28;20230;-74
2023/12/11 11:55:03;;;;;;;6.67;3.70;;;;;;;9.87;100.00;99385.03;6171473;28;20233;-74
2023/12/11 11:58:24;;;;;;;5.77;3.57;;;;;;;9.81;100.00;99383.00;6183488;28;21583;-77
2023/12/11 12:01:51;;;;;;;5.37;2.50;;;;;;;9.78;100.00;99395.00;6173310;28;20233;-76
2023/12/11 12:05:12;;;;;;;13.47;3.30;;;;;;;9.84;100.00;99391.63;6185821;28;20234;-74
2023/12/11 12:08:34;;;;;;;8.20;3.70;;;;;;;9.84;100.00;99396.16;6182598;28;20245;-74
2023/12/11 12:11:56;;;;;;;5.70;2.00;;;;;;;9.88;100.00;99392.13;6182524;28;20241;-74
2023/12/11 12:15:17;;;;;;;7.30;3.70;;;;;;;9.82;100.00;99396.31;6185940;28;20257;-74
2023/12/11 12:18:50;;;;;;;6.13;3.33;;;;;;;9.79;100.00;99395.81;6172894;28;20233;-80
2023/12/11 12:22:13;;;;;;;6.03;2.70;;;;;;;9.76;100.00;99397.00;6178516;28;20502;-72
2023/12/11 12:25:35;;;;;;;3.33;2.70;;;;;;;9.58;100.00;99401.66;6174783;28;20249;-71
2023/12/11 12:28:56;;;;;;;7.20;3.47;;;;;;;9.52;100.00;99396.97;6185971;28;20324;-72
2023/12/11 12:32:17;;;;;;;6.07;3.47;;;;;;;9.50;100.00;99404.34;6182619;28;20245;-75
2023/12/11 12:35:40;;;;;;;3.57;2.27;;;;;;;9.40;100.00;99412.59;6187679;28;20799;-80
2023/12/11 12:39:02;;;;;;;4.50;2.43;;;;;;;9.35;100.00;99420.28;6177319;28;20229;-74
2023/12/11 12:42:29;;;;;;;3.73;2.30;;;;;;;9.40;100.00;99419.81;6184040;28;20837;-77
2023/12/11 12:45:50;;;;;;;6.87;2.87;;;;;;;9.42;100.00;99425.84;6187054;28;20237;-82
2023/12/11 12:49:12;;;;;;;4.57;2.40;;;;;;;9.39;100.00;99427.03;6189730;28;20242;-80
2023/12/11 12:52:36;;;;;;;7.70;4.30;;;;;;;9.40;100.00;99425.19;6193011;28;20965;-80
2023/12/11 12:55:57;;;;;;;6.83;5.73;;;;;;;9.44;100.00;99434.59;6195708;28;20238;-78
2023/12/11 12:59:18;;;;;;;9.20;2.83;;;;;;;9.52;100.00;99431.94;6187777;28;20237;-77
2023/12/11 13:02:39;;;;;;;3.50;3.07;;;;;;;9.45;100.00;99439.00;6177489;28;20234;-75
2023/12/11 13:06:00;;;;;;;3.60;2.90;;;;;;;9.53;100.00;99433.63;6176124;28;20238;-75
2023/12/11 13:09:32;;;;;;;10.37;3.53;;;;;;;9.47;100.00;99437.78;6179020;28;20507;-74
2023/12/11 13:12:53;;;;;;;6.10;4.03;;;;;;;9.54;100.00;99444.22;6177505;28;20239;-76
2023/12/11 13:16:14;;;;;;;6.50;3.63;;;;;;;9.48;100.00;99439.50;6186451;28;20263;-74
2023/12/11 13:19:35;;;;;;;6.43;3.97;;;;;;;9.45;100.00;99449.75;6174164;28;20579;-72
2023/12/11 13:22:56;;;;;;;5.00;3.90;;;;;;;9.43;100.00;99457.09;6179567;28;20237;-75
2023/12/11 13:26:18;;;;;;;4.67;3.70;;;;;;;9.38;100.00;99462.16;6172676;28;20241;-72
2023/12/11 13:29:39;;;;;;;4.50;3.03;;;;;;;9.41;100.00;99461.81;6185060;28;20623;-77
2023/12/11 13:33:00;;;;;;;7.33;3.83;;;;;;;9.42;100.00;99467.06;6188778;28;20241;-76
2023/12/11 13:36:21;;;;;;;8.03;3.83;;;;;;;9.45;100.00;99469.41;6191538;28;21339;-78
2023/12/11 13:39:42;;;;;;;9.17;6.23;;;;;;;9.58;100.00;99469.78;6186460;28;20643;-78
2023/12/11 13:43:05;;;;;;;7.33;4.33;;;;;;;9.54;100.00;99472.94;6184975;28;20238;-78
2023/12/11 13:46:26;;;;;;;4.40;2.93;;;;;;;9.43;100.00;99476.78;6194680;28;20241;-76
2023/12/11 13:49:46;;;;;;;5.97;3.03;;;;;;;9.44;100.00;99480.31;6189027;28;20237;-78
2023/12/11 13:53:07;;;;;;;4.00;3.47;;;;;;;9.49;100.00;99480.69;6177711;28;20491;-74
2023/12/11 13:56:27;;;;;;;2.47;2.17;;;;;;;9.54;100.00;99481.88;6190192;28;20576;-75
2023/12/11 13:59:50;;;;;;;2.57;2.10;;;;;;;9.50;100.00;99487.75;6185622;28;20237;-74
2023/12/11 14:03:10;;;;;;;6.03;2.23;;;;;;;9.50;100.00;99493.13;6180853;28;20238;-75
2023/12/11 14:06:31;;;;;;;5.17;2.90;;;;;;;9.46;100.00;99494.44;6185131;28;20241;-76
2023/12/11 14:09:52;;;;;;;4.57;3.37;;;;;;;9.34;100.00;99502.00;6187778;28;20229;-74
2023/12/11 14:13:14;;;;;;;3.60;3.30;;;;;;;9.39;100.00;99509.53;6186392;28;20237;-75
2023/12/11 14:16:36;;;;;;;4.23;2.17;;;;;;;9.30;100.00;99514.06;6186120;28;20233;-74
2023/12/11 14:19:57;;;;;;;3.17;2.87;;;;;;;9.23;100.00;99514.88;6188728;28;20602;-74
2023/12/11 14:23:18;;;;;;;3.77;2.87;;;;;;;9.28;100.00;99529.50;6189875;28;20245;-75
2023/12/11 14:26:39;;;;;;;3.73;2.80;;;;;;;9.29;100.00;99533.88;6165215;28;20230;-74
2023/12/11 14:30:00;;;;;;;4.17;2.40;;;;;;;9.32;100.00;99548.88;6183042;28;20523;-80
2023/12/11 14:33:23;;;;;;;2.43;2.23;;;;;;;9.38;100.00;99554.44;6185359;28;20221;-77
2023/12/11 14:36:44;;;;;;;2.73;2.00;;;;;;;9.42;100.00;99563.03;6168872;28;20608;-75
2023/12/11 14:40:06;;;;;;;3.97;2.30;;;;;;;9.36;100.00;99579.81;6185254;28;20234;-76
2023/12/11 14:43:27;;;;;;;3.03;1.60;;;;;;;9.29;100.00;99584.13;6183829;28;20604;-77
2023/12/11 14:46:48;;;;;;;2.67;1.83;;;;;;;9.26;100.00;99597.91;6170453;28;20230;-76
2023/12/11 14:50:10;;;;;;;6.13;2.20;;;;;;;9.30;100.00;99600.13;6183335;28;20238;-74
2023/12/11 14:53:31;;;;;;;4.10;2.87;;;;;;;9.27;100.00;99604.97;6184408;28;20229;-75
2023/12/11 14:56:53;;;;;;;3.70;2.43;;;;;;;9.25;100.00;99606.97;6191986;28;20237;-74
2023/12/11 15:00:14;;;;;;;7.93;4.40;;;;;;;9.22;100.00;99621.56;6187822;28;20237;-73
2023/12/11 15:03:35;;;;;;;2.30;2.10;;;;;;;9.25;100.00;99629.31;6187661;28;20599;-74
2023/12/11 15:06:57;;;;;;;3.03;2.37;;;;;;;9.25;100.00;99639.22;6187436;28;20329;-77
2023/12/11 15:10:19;;;;;;;3.30;2.87;;;;;;;9.24;100.00;99651.81;6187563;28;20627;-75
2023/12/11 15:13:40;;;;;;;4.37;3.97;;;;;;;9.23;100.00;99652.84;6172097;28;20432;-74
2023/12/11 15:17:02;;;;;;;4.90;3.53;;;;;;;9.07;100.00;99658.13;6183557;28;20238;-74
2023/12/11 15:20:24;;;;;;;5.70;3.77;;;;;;;9.14;100.00;99672.59;6184573;28;20233;-77
2023/12/11 15:23:46;;;;;;;4.37;3.70;;;;;;;9.18;100.00;99679.34;6168644;28;20238;-74
2023/12/11 15:27:08;;;;;;;5.20;4.27;;;;;;;9.22;100.00;99683.41;6178700;28;20233;-73
2023/12/11 15:30:29;;;;;;;5.20;4.00;;;;;;;9.26;100.00;99695.53;6180278;28;20234;-75
2023/12/11 15:33:50;;;;;;;6.20;4.97;;;;;;;9.25;100.00;99707.31;6180297;28;20553;-76
2023/12/11 15:37:11;;;;;;;8.57;6.30;;;;;;;9.24;100.00;99705.59;6176484;28;20562;-77
2023/12/11 15:40:34;;;;;;;8.27;7.27;;;;;;;9.26;100.00;99717.03;6179628;28;20232;-77
2023/12/11 15:43:55;;;;;;;8.10;6.93;;;;;;;9.20;100.00;99719.53;6175194;28;20229;-77
2023/12/11 15:47:16;;;;;;;8.90;6.10;;;;;;;9.13;100.00;99722.00;6173702;28;20287;-74